.
WxDataArchive / Data Records for 2013-11-29
2013-11-28 November 2013 2013-11-30

Data Records for Friday, 29 November 2013

Time	Temp	Chill	HIndex	Humid	Dewpt	 Wind 	HiWind	WindDir	Rain 	Barom 
-----	----	-----	------	-----	-----	------	------	-------	-----	----- 
00:00	22.4	22.4	22.4	71	14.4	0	0	---	0.00	30.452 
00:05	22.1	22.1	22.1	72	14.5	0	0	---	0.00	30.452 
00:10	21.8	21.8	21.8	72	14.2	0	0	---	0.00	30.452 
00:15	21.6	21.6	21.6	73	14.3	0	0	---	0.00	30.460 
00:20	21.3	21.3	21.3	73	14.0	0	0	---	0.00	30.460 
00:25	21.1	21.1	21.1	73	13.8	0	0	---	0.00	30.460 
00:30	20.8	20.8	20.8	74	13.8	0	0	---	0.00	30.464 
00:35	20.6	20.6	20.6	74	13.7	0	0	---	0.00	30.464 
00:40	20.5	20.5	20.5	75	13.9	0	0	---	0.00	30.464 
00:45	20.3	20.3	20.3	76	14.0	0	0	---	0.00	30.468 
00:50	20.2	20.2	20.2	76	13.9	0	1	248	0.00	30.468 
00:55	20.2	20.2	20.2	77	14.2	0	0	---	0.00	30.468 
01:00	20.2	20.2	20.2	77	14.2	0	0	---	0.00	30.468 
01:05	20.2	20.2	20.2	78	14.5	0	0	---	0.00	30.468 
01:10	20.3	20.3	20.3	78	14.6	0	0	---	0.00	30.468 
01:15	20.6	20.6	20.6	79	15.1	0	0	---	0.00	30.465 
01:20	20.8	20.8	20.8	79	15.3	0	0	---	0.00	30.465 
01:25	21.0	21.0	21.0	79	15.5	0	0	---	0.00	30.465 
01:30	21.1	21.1	21.1	79	15.6	0	0	---	0.00	30.465 
01:35	21.4	21.4	21.4	79	15.9	0	0	---	0.00	30.465 
01:40	21.4	21.4	21.4	79	15.9	0	0	---	0.00	30.465 
01:45	21.8	21.8	21.8	79	16.3	0	0	---	0.00	30.467 
01:50	21.9	21.9	21.9	79	16.4	0	0	---	0.00	30.467 
01:55	22.1	22.1	22.1	79	16.6	0	0	---	0.00	30.467 
02:00	22.4	22.4	22.4	79	16.9	0	0	---	0.00	30.475 
02:05	22.7	22.7	22.7	79	17.2	0	0	---	0.00	30.475 
02:10	22.9	22.9	22.9	79	17.4	0	0	---	0.00	30.475 
02:15	23.0	23.0	23.0	79	17.5	0	0	---	0.00	30.477 
02:20	23.2	23.2	23.2	79	17.7	0	0	---	0.00	30.477 
02:25	23.3	23.3	23.3	79	17.8	0	0	---	0.00	30.477 
02:30	23.5	23.5	23.5	78	17.7	0	0	---	0.00	30.480 
02:35	23.6	23.6	23.6	78	17.8	0	0	---	0.00	30.480 
02:40	23.8	23.8	23.8	78	18.0	0	0	---	0.00	30.480 
02:45	23.9	23.9	23.9	78	18.1	0	0	---	0.00	30.491 
02:50	24.1	24.1	24.1	78	18.3	0	0	---	0.00	30.491 
02:55	24.2	24.2	24.2	77	18.1	0	0	---	0.00	30.491 
03:00	24.5	24.5	24.5	77	18.3	0	0	---	0.00	30.496 
03:05	24.7	24.7	24.7	77	18.5	0	0	---	0.00	30.496 
03:10	25.0	25.0	25.0	76	18.5	0	0	---	0.00	30.496 
03:15	25.1	25.1	25.1	76	18.6	0	0	---	0.00	30.506 
03:20	25.3	25.3	25.3	76	18.8	0	0	---	0.00	30.506 
03:25	25.4	25.4	25.4	76	18.9	0	0	---	0.00	30.506 
03:30	25.6	25.6	25.6	75	18.8	0	0	---	0.00	30.506 
03:35	25.7	25.7	25.7	75	18.9	0	0	---	0.00	30.506 
03:40	26.0	26.0	26.0	74	18.9	0	0	---	0.00	30.506 
03:45	26.1	26.1	26.1	74	19.0	0	0	---	0.00	30.512 
03:50	26.3	26.3	26.3	74	19.2	0	0	---	0.00	30.512 
03:55	26.6	26.6	26.6	73	19.1	0	0	---	0.00	30.512 
04:00	26.7	26.7	26.7	73	19.2	0	0	---	0.00	30.514 
04:05	26.7	26.7	26.7	73	19.2	0	0	---	0.00	30.514 
04:10	26.9	26.9	26.9	73	19.4	0	0	---	0.00	30.514 
04:15	27.0	27.0	27.0	73	19.5	0	0	---	0.00	30.521 
04:20	27.2	27.2	27.2	73	19.7	0	0	---	0.00	30.521 
04:25	27.3	27.3	27.3	72	19.5	0	0	---	0.00	30.521 
04:30	27.3	27.3	27.3	72	19.5	0	0	---	0.00	30.524 
04:35	27.5	27.5	27.5	72	19.7	0	0	---	0.00	30.524 
04:40	27.5	27.5	27.5	72	19.7	0	0	---	0.00	30.524 
04:45	27.5	27.5	27.5	72	19.7	0	0	---	0.00	30.527 
04:50	27.6	27.6	27.6	72	19.8	0	0	---	0.00	30.527 
04:55	27.6	27.6	27.6	72	19.8	0	0	---	0.00	30.527 
05:00	27.6	27.6	27.6	72	19.8	0	0	---	0.00	30.532 
05:05	27.6	27.6	27.6	72	19.8	0	0	---	0.00	30.532 
05:10	27.6	27.6	27.6	72	19.8	0	0	---	0.00	30.532 
05:15	27.8	27.8	27.8	72	20.0	0	0	---	0.00	30.534 
05:20	27.6	27.6	27.6	72	19.8	0	0	---	0.00	30.534 
05:25	27.6	27.6	27.6	72	19.8	0	0	---	0.00	30.534 
05:30	27.6	27.6	27.6	73	20.1	0	0	---	0.00	30.539 
05:35	27.8	27.8	27.8	73	20.3	0	0	---	0.00	30.539 
05:40	27.8	27.8	27.8	73	20.3	0	0	---	0.00	30.539 
05:45	27.8	27.8	27.8	73	20.3	0	0	---	0.00	30.542 
05:50	27.6	27.6	27.6	73	20.1	0	0	---	0.00	30.542 
05:55	27.6	27.6	27.6	73	20.1	0	0	---	0.00	30.542 
06:00	27.5	27.5	27.5	73	20.0	0	0	---	0.00	30.549 
06:05	27.3	27.3	27.3	73	19.8	0	0	---	0.00	30.549 
06:10	27.2	27.2	27.2	73	19.7	0	0	---	0.00	30.549 
06:15	27.0	27.0	27.0	73	19.5	0	0	---	0.00	30.557 
06:20	26.7	26.7	26.7	73	19.2	0	0	---	0.00	30.557 
06:25	26.6	26.6	26.6	73	19.1	0	0	---	0.00	30.557 
06:30	26.3	26.3	26.3	74	19.2	0	0	---	0.00	30.567 
06:35	25.8	25.8	25.8	74	18.7	0	0	---	0.00	30.567 
06:40	25.6	25.6	25.6	75	18.8	0	0	---	0.00	30.567 
06:45	25.3	25.3	25.3	76	18.8	0	0	---	0.00	30.581 
06:50	25.0	25.0	25.0	76	18.5	0	0	---	0.00	30.581 
06:55	24.8	24.8	24.8	76	18.3	0	0	---	0.00	30.581 
07:00	24.5	24.5	24.5	77	18.3	0	0	---	0.00	30.587 
07:05	24.2	24.2	24.2	77	18.1	0	0	---	0.00	30.587 
07:10	24.1	24.1	24.1	78	18.3	0	0	---	0.00	30.587 
07:15	23.8	23.8	23.8	78	18.0	0	0	---	0.00	30.598 
07:20	23.6	23.6	23.6	79	18.1	0	0	---	0.00	30.598 
07:25	23.3	23.3	23.3	79	17.8	0	0	---	0.00	30.598 
07:30	23.0	23.0	23.0	79	17.5	0	0	---	0.00	30.604 
07:35	22.7	22.7	22.7	79	17.2	0	0	---	0.00	30.604 
07:40	22.5	22.5	22.5	80	17.3	0	0	---	0.00	30.604 
07:45	22.2	22.2	22.2	80	17.0	0	0	---	0.00	30.615 
07:50	22.1	22.1	22.1	81	17.2	0	0	---	0.00	30.615 
07:55	21.9	21.9	21.9	81	17.0	0	0	---	0.00	30.615 
08:00	21.8	21.8	21.8	81	16.9	0	0	---	0.00	30.619 
08:05	21.8	21.8	21.8	82	17.2	0	0	---	0.00	30.619 
08:10	21.8	21.8	21.8	82	17.2	0	0	---	0.00	30.619 
08:15	21.8	21.8	21.8	83	17.4	0	0	---	0.00	30.623 
08:20	21.8	21.8	21.8	83	17.4	0	0	---	0.00	30.623 
08:25	21.9	21.9	21.9	83	17.5	0	0	---	0.00	30.623 
08:30	21.9	21.9	21.9	83	17.5	0	0	---	0.00	30.631 
08:35	22.1	22.1	22.1	84	18.0	0	0	---	0.00	30.631 
08:40	22.4	22.4	22.4	84	18.3	0	0	---	0.00	30.631 
08:45	22.7	22.7	22.7	84	18.6	0	0	---	0.00	30.633 
08:50	23.0	23.0	23.0	84	18.9	0	0	---	0.00	30.633 
08:55	23.3	23.3	23.3	85	19.5	0	0	---	0.00	30.633 
09:00	23.9	23.9	23.9	85	20.1	0	0	---	0.00	30.634 
09:05	24.4	24.4	24.4	85	20.6	0	0	---	0.00	30.634 
09:10	25.0	25.0	25.0	85	21.1	0	0	---	0.00	30.634 
09:15	25.7	25.7	25.7	84	21.5	0	1	248	0.00	30.634 
09:20	26.6	26.6	26.6	82	21.9	0	2	248	0.00	30.634 
09:25	27.3	27.3	27.3	79	21.7	0	1	248	0.00	30.634 
09:30	27.8	27.8	27.8	77	21.5	0	1	248	0.00	30.635 
09:35	28.2	28.2	28.2	74	21.0	0	2	248	0.00	30.635 
09:40	28.7	28.7	28.7	73	21.2	0	2	248	0.00	30.635 
09:45	29.0	29.0	29.0	71	20.8	0	2	248	0.00	30.635 
09:50	29.3	29.3	29.3	71	21.1	0	2	248	0.00	30.635 
09:55	29.5	29.5	29.5	69	20.6	0	2	248	0.00	30.635 
10:00	29.8	29.8	29.8	69	20.9	0	2	248	0.00	30.634 
10:05	30.1	30.1	30.1	68	20.8	1	4	90	0.00	30.634 
10:10	30.4	30.4	30.4	68	21.1	0	3	90	0.00	30.634 
10:15	30.7	30.7	30.7	67	21.1	0	2	22	0.00	30.642 
10:20	31.0	31.0	31.0	67	21.3	0	2	22	0.00	30.642 
10:25	31.2	31.2	31.2	66	21.2	0	1	45	0.00	30.642 
10:30	31.3	31.3	31.3	65	20.9	0	1	45	0.00	30.648 
10:35	31.5	31.5	31.5	64	20.7	0	2	45	0.00	30.648 
10:40	31.8	31.8	31.8	63	20.7	0	1	45	0.00	30.648 
10:45	31.9	31.9	31.9	63	20.8	0	1	45	0.00	30.647 
10:50	31.9	31.9	31.9	61	20.0	0	1	45	0.00	30.647 
10:55	32.1	32.1	32.1	59	19.4	0	2	45	0.00	30.647 
11:00	32.4	32.4	32.4	58	19.3	0	3	45	0.00	30.648 
11:05	32.5	32.5	32.5	56	18.6	0	2	45	0.00	30.648 
11:10	32.5	32.5	32.5	56	18.6	1	4	68	0.00	30.648 
11:15	32.4	32.4	32.4	55	18.1	1	3	68	0.00	30.650 
11:20	32.4	32.4	32.4	57	18.9	0	2	68	0.00	30.650 
11:25	32.7	32.7	32.7	57	19.2	0	2	45	0.00	30.650 
11:30	32.8	32.8	32.8	55	18.4	0	2	45	0.00	30.649 
11:35	32.8	32.8	32.8	54	18.0	0	3	45	0.00	30.649 
11:40	32.8	32.8	32.8	55	18.4	0	2	45	0.00	30.649 
11:45	32.9	32.9	32.9	55	18.5	0	2	45	0.00	30.647 
11:50	32.9	32.9	32.9	54	18.1	0	1	45	0.00	30.647 
11:55	33.1	33.1	33.1	55	18.7	0	2	45	0.00	30.647 
12:00	33.4	33.4	33.4	54	18.6	0	3	45	0.00	30.641 
12:05	33.4	33.4	33.4	53	18.1	1	4	45	0.00	30.641 
12:10	33.2	33.2	33.2	53	17.9	0	1	45	0.00	30.641 
12:15	33.5	33.5	33.5	55	19.1	0	1	45	0.00	30.636 
12:20	33.7	33.7	33.7	53	18.4	0	1	45	0.00	30.636 
12:25	33.8	33.8	33.8	53	18.5	1	3	90	0.00	30.636 
12:30	34.0	34.0	34.0	52	18.2	1	4	90	0.00	30.632 
12:35	33.8	33.8	33.8	52	18.1	0	1	90	0.00	30.632 
12:40	34.0	34.0	34.0	52	18.2	0	2	90	0.00	30.632 
12:45	34.0	34.0	34.0	53	18.7	1	3	90	0.00	30.627 
12:50	34.0	34.0	34.0	51	17.8	1	4	90	0.00	30.627 
12:55	34.0	34.0	34.0	53	18.7	0	1	90	0.00	30.627 
13:00	34.0	34.0	34.0	52	18.2	0	1	90	0.00	30.617 
13:05	34.1	34.1	34.1	52	18.3	0	1	90	0.00	30.617 
13:10	34.3	34.3	34.3	51	18.1	2	5	90	0.00	30.617 
13:15	34.3	34.3	34.3	51	18.1	1	4	90	0.00	30.612 
13:20	34.3	34.3	34.3	51	18.1	0	2	90	0.00	30.612 
13:25	34.4	34.4	34.4	51	18.2	0	1	90	0.00	30.612 
13:30	34.6	34.6	34.6	50	17.9	0	3	90	0.00	30.614 
13:35	34.4	34.4	34.4	50	17.7	0	1	90	0.00	30.614 
13:40	34.4	34.4	34.4	50	17.7	0	3	90	0.00	30.614 
13:45	34.6	34.6	34.6	50	17.9	1	4	90	0.00	30.614 
13:50	34.7	34.7	34.7	50	18.0	0	4	90	0.00	30.614 
13:55	34.9	34.9	34.9	49	17.7	2	5	90	0.00	30.614 
14:00	34.9	34.9	34.9	50	18.2	1	4	90	0.00	30.603 
14:05	34.9	34.9	34.9	49	17.7	1	4	90	0.00	30.603 
14:10	35.0	35.0	35.0	51	18.7	0	2	90	0.00	30.603 
14:15	35.2	35.2	35.2	50	18.4	1	5	90	0.00	30.609 
14:20	35.2	35.2	35.2	50	18.4	1	5	90	0.00	30.609 
14:25	35.2	35.2	35.2	49	18.0	2	4	90	0.00	30.609 
14:30	35.3	35.3	35.3	51	19.0	1	4	90	0.00	30.596 
14:35	35.6	35.6	35.6	50	18.8	0	2	90	0.00	30.596 
14:40	35.8	35.8	35.8	50	19.0	0	2	90	0.00	30.596 
14:45	35.8	35.8	35.8	50	19.0	0	3	90	0.00	30.596 
14:50	35.8	35.8	35.8	49	18.5	1	3	90	0.00	30.596 
14:55	35.8	35.8	35.8	49	18.5	1	4	90	0.00	30.596 
15:00	35.6	35.6	35.6	49	18.3	1	3	90	0.00	30.598 
15:05	35.5	35.5	35.5	49	18.3	1	5	90	0.00	30.598 
15:10	35.5	35.5	35.5	49	18.3	1	5	90	0.00	30.598 
15:15	35.6	35.6	35.6	49	18.3	0	1	90	0.00	30.600 
15:20	35.6	35.6	35.6	49	18.3	0	3	90	0.00	30.600 
15:25	35.8	35.8	35.8	50	19.0	1	4	90	0.00	30.600 
15:30	35.6	35.6	35.6	50	18.8	1	4	90	0.00	30.598 
15:35	35.5	35.5	35.5	50	18.7	1	3	90	0.00	30.598 
15:40	35.3	35.3	35.3	50	18.5	0	2	90	0.00	30.598 
15:45	35.3	35.3	35.3	50	18.5	1	3	90	0.00	30.596 
15:50	35.3	35.3	35.3	50	18.5	1	3	90	0.00	30.596 
15:55	35.3	35.3	35.3	50	18.5	1	4	90	0.00	30.596 
16:00	35.2	35.2	35.2	51	18.9	0	3	90	0.00	30.600 
16:05	35.0	35.0	35.0	51	18.7	0	2	90	0.00	30.600 
16:10	34.9	34.9	34.9	51	18.6	1	3	90	0.00	30.600 
16:15	34.7	34.7	34.7	52	18.9	1	4	90	0.00	30.601 
16:20	34.6	34.6	34.6	52	18.8	0	2	90	0.00	30.601 
16:25	34.4	34.4	34.4	53	19.1	1	6	90	0.00	30.601 
16:30	34.3	34.3	34.3	53	19.0	1	4	90	0.00	30.595 
16:35	34.3	34.3	34.3	54	19.4	0	1	90	0.00	30.595 
16:40	34.0	34.0	34.0	54	19.1	0	2	90	0.00	30.595 
16:45	33.8	33.8	33.8	54	18.9	0	2	90	0.00	30.597 
16:50	33.5	33.5	33.5	55	19.1	0	2	90	0.00	30.597 
16:55	33.2	33.2	33.2	55	18.8	0	1	90	0.00	30.597 
17:00	32.9	32.9	32.9	56	18.9	0	1	90	0.00	30.599 
17:05	32.7	32.7	32.7	57	19.2	0	1	90	0.00	30.599 
17:10	32.5	32.5	32.5	57	19.0	0	1	90	0.00	30.599 
17:15	32.2	32.2	32.2	58	19.1	0	0	---	0.00	30.598 
17:20	31.9	31.9	31.9	58	18.8	0	1	90	0.00	30.598 
17:25	31.6	31.6	31.6	58	18.5	0	1	90	0.00	30.598 
17:30	31.5	31.5	31.5	59	18.8	0	1	90	0.00	30.598 
17:35	31.2	31.2	31.2	59	18.6	0	0	---	0.00	30.598 
17:40	31.0	31.0	31.0	59	18.4	0	1	90	0.00	30.598 
17:45	30.9	30.9	30.9	60	18.7	0	1	90	0.00	30.599 
17:50	30.7	30.7	30.7	60	18.5	0	1	90	0.00	30.599 
17:55	30.6	30.6	30.6	61	18.8	0	0	---	0.00	30.599 
18:00	30.3	30.3	30.3	61	18.5	0	0	---	0.00	30.602 
18:05	30.0	30.0	30.0	61	18.2	0	0	---	0.00	30.602 
18:10	29.5	29.5	29.5	62	18.1	0	0	---	0.00	30.602 
18:15	29.3	29.3	29.3	63	18.3	0	0	---	0.00	30.604 
18:20	29.0	29.0	29.0	64	18.4	0	0	---	0.00	30.604 
18:25	28.8	28.8	28.8	65	18.5	0	1	90	0.00	30.604 
18:30	28.8	28.8	28.8	65	18.5	0	1	90	0.00	30.601 
18:35	28.8	28.8	28.8	64	18.2	0	1	90	0.00	30.601 
18:40	29.0	29.0	29.0	65	18.7	0	2	90	0.00	30.601 
18:45	29.0	29.0	29.0	64	18.4	0	1	90	0.00	30.601 
18:50	29.0	29.0	29.0	64	18.4	0	1	90	0.00	30.601 
18:55	29.0	29.0	29.0	64	18.4	0	1	90	0.00	30.601 
19:00	29.0	29.0	29.0	64	18.4	0	2	90	0.00	30.601 
19:05	29.0	29.0	29.0	64	18.4	0	2	90	0.00	30.601 
19:10	28.8	28.8	28.8	65	18.5	0	2	90	0.00	30.601 
19:15	28.8	28.8	28.8	65	18.5	0	2	90	0.00	30.599 
19:20	28.7	28.7	28.7	65	18.4	0	2	90	0.00	30.599 
19:25	28.7	28.7	28.7	65	18.4	0	2	90	0.00	30.599 
19:30	28.5	28.5	28.5	65	18.3	0	1	90	0.00	30.594 
19:35	28.5	28.5	28.5	65	18.3	0	2	90	0.00	30.594 
19:40	28.4	28.4	28.4	65	18.2	0	3	90	0.00	30.594 
19:45	28.4	28.4	28.4	65	18.2	0	2	90	0.00	30.589 
19:50	28.2	28.2	28.2	65	18.0	0	1	90	0.00	30.589 
19:55	28.1	28.1	28.1	65	17.9	0	1	90	0.00	30.589 
20:00	27.9	27.9	27.9	65	17.7	0	2	90	0.00	30.590 
20:05	27.9	27.9	27.9	65	17.7	0	1	90	0.00	30.590 
20:10	27.8	27.8	27.8	65	17.6	0	1	90	0.00	30.590 
20:15	27.5	27.5	27.5	66	17.7	0	1	90	0.00	30.585 
20:20	27.5	27.5	27.5	66	17.7	0	1	90	0.00	30.585 
20:25	27.3	27.3	27.3	66	17.5	0	1	90	0.00	30.585 
20:30	27.3	27.3	27.3	67	17.8	0	0	---	0.00	30.580 
20:35	27.2	27.2	27.2	67	17.7	0	1	90	0.00	30.580 
20:40	27.2	27.2	27.2	67	17.7	0	0	---	0.00	30.580 
20:45	27.0	27.0	27.0	67	17.5	0	1	90	0.00	30.576 
20:50	26.9	26.9	26.9	67	17.4	0	0	---	0.00	30.576 
20:55	26.9	26.9	26.9	67	17.4	0	2	90	0.00	30.576 
21:00	26.7	26.7	26.7	68	17.6	0	0	---	0.00	30.578 
21:05	26.7	26.7	26.7	68	17.6	0	0	---	0.00	30.578 
21:10	26.6	26.6	26.6	68	17.5	0	1	90	0.00	30.578 
21:15	26.6	26.6	26.6	68	17.5	0	1	90	0.00	30.569 
21:20	26.6	26.6	26.6	68	17.5	0	1	90	0.00	30.569 
21:25	26.6	26.6	26.6	69	17.8	0	2	90	0.00	30.569 
21:30	26.7	26.7	26.7	69	17.9	0	2	90	0.00	30.565 
21:35	26.7	26.7	26.7	68	17.6	0	2	90	0.00	30.565 
21:40	26.7	26.7	26.7	69	17.9	0	3	90	0.00	30.565 
21:45	26.7	26.7	26.7	69	17.9	0	1	90	0.00	30.557 
21:50	26.7	26.7	26.7	69	17.9	1	3	90	0.00	30.557 
21:55	26.9	26.9	26.9	68	17.8	1	3	90	0.00	30.557 
22:00	26.9	26.9	26.9	69	18.1	1	2	90	0.00	30.546 
22:05	27.0	27.0	27.0	69	18.2	1	4	90	0.00	30.546 
22:10	27.0	27.0	27.0	69	18.2	0	3	90	0.00	30.546 
22:15	27.0	27.0	27.0	69	18.2	1	4	90	0.00	30.549 
22:20	26.9	26.9	26.9	69	18.1	0	2	90	0.00	30.549 
22:25	26.9	26.9	26.9	69	18.1	1	2	90	0.00	30.549 
22:30	27.0	27.0	27.0	69	18.2	1	3	90	0.00	30.550 
22:35	27.0	27.0	27.0	69	18.2	0	3	90	0.00	30.550 
22:40	27.2	27.2	27.2	69	18.4	0	1	90	0.00	30.550 
22:45	27.0	27.0	27.0	69	18.2	0	1	90	0.00	30.551 
22:50	27.0	27.0	27.0	70	18.5	0	1	90	0.00	30.551 
22:55	27.0	27.0	27.0	70	18.5	0	1	90	0.00	30.551 
23:00	27.0	27.0	27.0	70	18.5	0	0	---	0.00	30.550 
23:05	27.0	27.0	27.0	71	18.9	0	1	90	0.00	30.550 
23:10	27.0	27.0	27.0	71	18.9	0	1	90	0.00	30.550 
23:15	27.0	27.0	27.0	72	19.2	0	1	90	0.00	30.546 
23:20	27.2	27.2	27.2	72	19.4	0	1	90	0.00	30.546 
23:25	27.2	27.2	27.2	72	19.4	0	1	90	0.00	30.546 
23:30	27.2	27.2	27.2	72	19.4	0	1	90	0.00	30.539 
23:35	27.3	27.3	27.3	72	19.5	0	1	90	0.00	30.539 
23:40	27.3	27.3	27.3	72	19.5	0	1	90	0.00	30.539 
23:45	27.3	27.3	27.3	72	19.5	0	1	90	0.00	30.541 
23:50	27.3	27.3	27.3	72	19.5	0	2	90	0.00	30.541 
23:55	27.3	27.3	27.3	72	19.5	0	1	90	0.00	30.541 

CoCoRaHS
IN-AL-39
A2 Web Hosting
Creative Commons License
GoDaddy
search engine by freefind advanced

loaded 2018-11-12 15:18:40 • last modified 2010-11-18 10:43:29
Privacy PolicyDisclaimer
• wx.awcolley.com is powered by PmWiki v.2002016 •
• all content (unless otherwise noted) © 2018 A W Colley